Time;durP1;ratioP1;P1;durP2;ratioP2;P2;SDS_P1;SDS_P2;PMS_P1;PMS_P2;Temp;Humidity;BMP_temperature;BMP_pressure;BME280_temperature;BME280_humidity;BME280_pressure;Samples;Min_cycle;Max_cycle;Signal;HPM_P1;HPM_P2
2023/06/27 00:02:58;;;;;;;;;;;;;;;18.13;46.44824;102067;;;;-68
2023/06/27 00:07:57;;;;;;;;;;;;;;;18.08;46.43066;102064.6;;;;-66
2023/06/27 00:12:56;;;;;;;;;;;;;;;18.1;46.33105;102064.9;;;;-67
2023/06/27 00:17:58;;;;;;;;;;;;;;;18.05;46.76953;102055;;;;-67
2023/06/27 00:22:59;;;;;;;;;;;;;;;18;46.36621;102051.7;;;;-67
2023/06/27 00:23:33;;;;;;;0.2;0.1;;;;;;;;;;;;;-68
2023/06/27 00:28:02;;;;;;;;;;;;;;;17.98;46.83008;102055;;;;-67
2023/06/27 00:32:57;;;;;;;;;;;;;;;17.92;46.77832;102054.3;;;;-69
2023/06/27 00:37:58;;;;;;;;;;;;;;;17.86;46.82813;102048.4;;;;-66
2023/06/27 00:42:57;;;;;;;;;;;;;;;17.85;46.89551;102051.2;;;;-67
2023/06/27 00:48:00;;;;;;;;;;;;;;;17.81;46.9707;102051.3;;;;-66
2023/06/27 00:52:57;;;;;;;;;;;;;;;17.83;47.0293;102048.8;;;;-67
2023/06/27 00:53:18;;;;;;;0.3;0.1;;;;;;;;;;;;;-72
2023/06/27 00:57:57;;;;;;;;;;;;;;;17.81;46.94824;102046.1;;;;-67
2023/06/27 01:02:56;;;;;;;;;;;;;;;17.78;47.07031;102046.5;;;;-67
2023/06/27 01:08:00;;;;;;;;;;;;;;;17.72;47.41602;102039.6;;;;-68
2023/06/27 01:12:59;;;;;;;;;;;;;;;17.7;47.39063;102041.4;;;;-67
2023/06/27 01:17:57;;;;;;;;;;;;;;;17.63;47.47461;102048.9;;;;-66
2023/06/27 01:23:01;;;;;;;;;;;;;;;17.6;47.69922;102050.6;;;;-66
2023/06/27 01:23:20;;;;;;;0.3;0.1;;;;;;;;;;;;;-67
2023/06/27 01:27:57;;;;;;;;;;;;;;;17.55;47.81738;102046.5;;;;-67
2023/06/27 01:32:58;;;;;;;;;;;;;;;17.51;47.68848;102046.5;;;;-66
2023/06/27 01:37:59;;;;;;;;;;;;;;;17.51;47.87012;102055.8;;;;-67
2023/06/27 01:42:59;;;;;;;;;;;;;;;17.4;47.96094;102053;;;;-67
2023/06/27 01:47:57;;;;;;;;;;;;;;;17.34;47.96484;102053.1;;;;-66
2023/06/27 01:52:57;;;;;;;;;;;;;;;17.33;48.24805;102055.8;;;;-67
2023/06/27 01:53:20;;;;;;;0.2;0;;;;;;;;;;;;;-66
2023/06/27 01:57:57;;;;;;;;;;;;;;;17.23;48.52051;102057;;;;-68
2023/06/27 02:02:56;;;;;;;;;;;;;;;17.26;48.41016;102054.7;;;;-66
2023/06/27 02:07:57;;;;;;;;;;;;;;;17.21;48.51855;102054.6;;;;-66
2023/06/27 02:12:57;;;;;;;;;;;;;;;17.16;48.86426;102050.7;;;;-66
2023/06/27 02:17:56;;;;;;;;;;;;;;;17.11;48.68945;102050.1;;;;-65
2023/06/27 02:22:59;;;;;;;;;;;;;;;17.05;48.91992;102045;;;;-67
2023/06/27 02:23:23;;;;;;;0.2;0.1;;;;;;;;;;;;;-68
2023/06/27 02:27:56;;;;;;;;;;;;;;;17.07;48.79785;102035.1;;;;-67
2023/06/27 02:32:56;;;;;;;;;;;;;;;17.01;49.00586;102041;;;;-67
2023/06/27 02:37:56;;;;;;;;;;;;;;;16.96;49.15918;102036.7;;;;-68
2023/06/27 02:42:56;;;;;;;;;;;;;;;16.89;49.10547;102038.4;;;;-66
2023/06/27 02:47:56;;;;;;;;;;;;;;;16.87;49.12695;102040.2;;;;-67
2023/06/27 02:52:56;;;;;;;;;;;;;;;16.79;49.10645;102034.6;;;;-68
2023/06/27 02:53:26;;;;;;;0.2;0.1;;;;;;;;;;;;;-67
2023/06/27 02:57:56;;;;;;;;;;;;;;;16.76;49.35254;102033.7;;;;-65
2023/06/27 03:02:59;;;;;;;;;;;;;;;16.71;49.24512;102029.4;;;;-67
2023/06/27 03:07:58;;;;;;;;;;;;;;;16.69;49.15137;102029.6;;;;-66
2023/06/27 03:12:56;;;;;;;;;;;;;;;16.64;49.34961;102034.5;;;;-67
2023/06/27 03:17:57;;;;;;;;;;;;;;;16.65;49.23828;102038.6;;;;-66
2023/06/27 03:22:57;;;;;;;;;;;;;;;16.6;49.46973;102038.9;;;;-66
2023/06/27 03:23:34;;;;;;;0.2;0;;;;;;;;;;;;;-66
2023/06/27 03:27:56;;;;;;;;;;;;;;;16.64;49.50781;102035.5;;;;-67
2023/06/27 03:32:56;;;;;;;;;;;;;;;16.63;49.61035;102032.9;;;;-65
2023/06/27 03:37:57;;;;;;;;;;;;;;;16.67;49.50195;102031.9;;;;-68
2023/06/27 03:42:57;;;;;;;;;;;;;;;16.66;49.64648;102031.9;;;;-66
2023/06/27 03:47:56;;;;;;;;;;;;;;;16.71;49.65332;102029.6;;;;-68
2023/06/27 03:52:58;;;;;;;;;;;;;;;16.79;49.57031;102032.5;;;;-68
2023/06/27 03:53:31;;;;;;;0.2;0.1;;;;;;;;;;;;;-68
2023/06/27 03:57:57;;;;;;;;;;;;;;;16.84;49.79199;102034.5;;;;-68
2023/06/27 04:02:57;;;;;;;;;;;;;;;16.88;49.66113;102042.9;;;;-67
2023/06/27 04:07:57;;;;;;;;;;;;;;;16.91;49.75391;102045.6;;;;-68
2023/06/27 04:12:56;;;;;;;;;;;;;;;16.98;49.59277;102041.8;;;;-67
2023/06/27 04:17:56;;;;;;;;;;;;;;;17.02;49.41504;102052.3;;;;-66
2023/06/27 04:22:56;;;;;;;;;;;;;;;17.09;49.36621;102050.3;;;;-68
2023/06/27 04:23:33;;;;;;;0.3;0.2;;;;;;;;;;;;;-67
2023/06/27 04:27:56;;;;;;;;;;;;;;;17.1;49.18652;102053.1;;;;-68
2023/06/27 04:32:56;;;;;;;;;;;;;;;17.18;49.26367;102044.9;;;;-67
2023/06/27 04:37:57;;;;;;;;;;;;;;;17.24;49.06543;102052;;;;-66
2023/06/27 04:42:57;;;;;;;;;;;;;;;17.3;48.98242;102053.6;;;;-67
2023/06/27 04:47:56;;;;;;;;;;;;;;;17.34;48.90625;102047;;;;-68
2023/06/27 04:52:56;;;;;;;;;;;;;;;17.4;48.95801;102047;;;;-67
2023/06/27 04:53:36;;;;;;;0.2;0;;;;;;;;;;;;;-66
2023/06/27 04:57:57;;;;;;;;;;;;;;;17.46;48.89746;102045.4;;;;-68
2023/06/27 05:02:56;;;;;;;;;;;;;;;17.51;48.77734;102049.6;;;;-67
2023/06/27 05:07:56;;;;;;;;;;;;;;;17.61;48.94727;102041.8;;;;-68
2023/06/27 05:12:57;;;;;;;;;;;;;;;17.69;48.60449;102039.8;;;;-67
2023/06/27 05:17:57;;;;;;;;;;;;;;;17.81;48.60645;102038.1;;;;-67
2023/06/27 05:22:56;;;;;;;;;;;;;;;17.96;48.42969;102044.8;;;;-67
2023/06/27 05:23:38;;;;;;;0.2;0.1;;;;;;;;;;;;;-68
2023/06/27 05:27:56;;;;;;;;;;;;;;;18.13;48.55078;102050.2;;;;-66
2023/06/27 05:32:57;;;;;;;;;;;;;;;18.27;48.41895;102046.4;;;;-67
2023/06/27 05:37:56;;;;;;;;;;;;;;;18.42;48.26465;102055;;;;-66
2023/06/27 05:42:56;;;;;;;;;;;;;;;18.55;48.05078;102059;;;;-68
2023/06/27 05:47:58;;;;;;;;;;;;;;;18.76;48.49414;102055;;;;-66
2023/06/27 05:52:56;;;;;;;;;;;;;;;19.21;48.06445;102053.1;;;;-67
2023/06/27 05:53:43;;;;;;;0.2;0.1;;;;;;;;;;;;;-69
2023/06/27 05:57:56;;;;;;;;;;;;;;;19.72;47.31055;102062.2;;;;-67
2023/06/27 06:02:56;;;;;;;;;;;;;;;20.46;46.1084;102068.8;;;;-67
2023/06/27 06:07:56;;;;;;;;;;;;;;;21;45.4209;102071.4;;;;-69
2023/06/27 06:12:56;;;;;;;;;;;;;;;21.4;45.42773;102074.4;;;;-66
2023/06/27 06:17:56;;;;;;;;;;;;;;;21.68;44.83691;102078.8;;;;-68
2023/06/27 06:22:56;;;;;;;;;;;;;;;21.93;44.74707;102073.4;;;;-66
2023/06/27 06:23:47;;;;;;;0.3;0.1;;;;;;;;;;;;;-66
2023/06/27 06:27:57;;;;;;;;;;;;;;;22.28;44.00098;102074.3;;;;-66
2023/06/27 06:32:56;;;;;;;;;;;;;;;22.46;43.97363;102081.5;;;;-65
2023/06/27 06:37:56;;;;;;;;;;;;;;;22.85;43.59668;102088;;;;-67
2023/06/27 06:42:56;;;;;;;;;;;;;;;23.31;42.96191;102088.4;;;;-68
2023/06/27 06:47:59;;;;;;;;;;;;;;;23.77;41.96875;102085.1;;;;-67
2023/06/27 06:52:56;;;;;;;;;;;;;;;24.25;41.13574;102091;;;;-67
2023/06/27 06:53:47;;;;;;;0.2;0.1;;;;;;;;;;;;;-67
2023/06/27 06:57:57;;;;;;;;;;;;;;;24.54;40.58398;102086.3;;;;-67
2023/06/27 07:02:56;;;;;;;;;;;;;;;24.9;40.02734;102088.2;;;;-65
2023/06/27 07:07:56;;;;;;;;;;;;;;;25.15;39.49414;102088.5;;;;-68
2023/06/27 07:12:59;;;;;;;;;;;;;;;25.42;39.33203;102087.6;;;;-67
2023/06/27 07:17:56;;;;;;;;;;;;;;;25.61;38.78027;102088.1;;;;-67
2023/06/27 07:22:56;;;;;;;;;;;;;;;25.59;38.97656;102092.4;;;;-67
2023/06/27 07:23:51;;;;;;;0.2;0;;;;;;;;;;;;;-67
2023/06/27 07:27:56;;;;;;;;;;;;;;;25.93;38.32129;102084.6;;;;-66
2023/06/27 07:32:56;;;;;;;;;;;;;;;25.82;37.89355;102089.1;;;;-66
2023/06/27 07:37:56;;;;;;;;;;;;;;;25.61;38.49121;102083.9;;;;-68
2023/06/27 07:42:56;;;;;;;;;;;;;;;25.75;38.44531;102082;;;;-67
2023/06/27 07:47:56;;;;;;;;;;;;;;;26.23;37.67285;102082.2;;;;-66
2023/06/27 07:52:56;;;;;;;;;;;;;;;26.54;36.97852;102078.9;;;;-66
2023/06/27 07:53:56;;;;;;;0.2;0;;;;;;;;;;;;;-69
2023/06/27 07:57:56;;;;;;;;;;;;;;;26.64;36.44141;102082.5;;;;-68
2023/06/27 08:02:56;;;;;;;;;;;;;;;26.21;36.60352;102081.1;;;;-69
2023/06/27 08:07:56;;;;;;;;;;;;;;;25.92;37.38086;102081.9;;;;-68
2023/06/27 08:12:56;;;;;;;;;;;;;;;25.98;37.3623;102090.3;;;;-67
2023/06/27 08:17:57;;;;;;;;;;;;;;;25.87;37.34277;102096.6;;;;-67
2023/06/27 08:22:56;;;;;;;;;;;;;;;25.71;37.2002;102092.9;;;;-67
2023/06/27 08:24:01;;;;;;;0.2;0.1;;;;;;;;;;;;;-67
2023/06/27 08:27:56;;;;;;;;;;;;;;;25.68;37.61621;102090.4;;;;-66
2023/06/27 08:32:56;;;;;;;;;;;;;;;25.55;37.92969;102086.4;;;;-67
2023/06/27 08:37:56;;;;;;;;;;;;;;;25.54;38.10254;102088.1;;;;-67
2023/06/27 08:42:57;;;;;;;;;;;;;;;25.64;37.77539;102098.3;;;;-69
2023/06/27 08:47:57;;;;;;;;;;;;;;;25.77;37.44922;102102.6;;;;-67
2023/06/27 08:52:59;;;;;;;;;;;;;;;25.68;37.51172;102100.7;;;;-66
2023/06/27 08:54:08;;;;;;;0.2;0;;;;;;;;;;;;;-68
2023/06/27 08:57:57;;;;;;;;;;;;;;;25.67;37.66113;102107.4;;;;-67
2023/06/27 09:02:58;;;;;;;;;;;;;;;25.72;37.68848;102103.4;;;;-66
2023/06/27 09:07:57;;;;;;;;;;;;;;;25.75;37.76074;102098.3;;;;-68
2023/06/27 09:12:57;;;;;;;;;;;;;;;25.86;37.56055;102105.7;;;;-67
2023/06/27 09:17:56;;;;;;;;;;;;;;;25.86;37.58496;102104.8;;;;-67
2023/06/27 09:22:58;;;;;;;;;;;;;;;25.7;37.89648;102102.7;;;;-67
2023/06/27 09:24:16;;;;;;;0.2;0;;;;;;;;;;;;;-66
2023/06/27 09:27:58;;;;;;;;;;;;;;;25.69;37.65137;102104.5;;;;-66
2023/06/27 09:33:00;;;;;;;;;;;;;;;25.73;37.44531;102105.5;;;;-67
2023/06/27 09:38:07;;;;;;;;;;;;;;;25.61;37.8418;102111.6;;;;-68
2023/06/27 09:42:58;;;;;;;;;;;;;;;25.64;37.91309;102114.9;;;;-68
2023/06/27 09:47:57;;;;;;;;;;;;;;;25.62;38.16699;102116.9;;;;-67
2023/06/27 09:52:57;;;;;;;;;;;;;;;25.86;37.71191;102120.7;;;;-67
2023/06/27 09:54:14;;;;;;;0.2;0;;;;;;;;;;;;;-67
2023/06/27 09:57:57;;;;;;;;;;;;;;;25.92;37.99609;102115.5;;;;-67
2023/06/27 10:02:59;;;;;;;;;;;;;;;26.19;37.49609;102121.1;;;;-67
2023/06/27 10:07:57;;;;;;;;;;;;;;;26.12;37.52539;102120.7;;;;-66
2023/06/27 10:12:57;;;;;;;;;;;;;;;26.04;37.55273;102122.1;;;;-68
2023/06/27 10:17:59;;;;;;;;;;;;;;;26.04;37.37891;102114.4;;;;-67
2023/06/27 10:22:57;;;;;;;;;;;;;;;25.95;37.46484;102113.2;;;;-67
2023/06/27 10:24:18;;;;;;;0.2;0;;;;;;;;;;;;;-68
2023/06/27 10:28:06;;;;;;;;;;;;;;;25.85;37.81543;102116.5;;;;-68
2023/06/27 10:33:06;;;;;;;;;;;;;;;25.9;37.7627;102121.7;;;;-68
2023/06/27 10:38:08;;;;;;;;;;;;;;;26.14;37.53809;102121.1;;;;-67
2023/06/27 10:42:59;;;;;;;;;;;;;;;26.17;37.4248;102129.4;;;;-68
2023/06/27 10:48:05;;;;;;;;;;;;;;;26.18;37.23926;102123.9;;;;-68
2023/06/27 10:53:06;;;;;;;;;;;;;;;26.42;37.18945;102121.4;;;;-67
2023/06/27 10:54:22;;;;;;;0.1;0;;;;;;;;;;;;;-65
2023/06/27 10:58:06;;;;;;;;;;;;;;;26.49;37.36914;102118.9;;;;-66
2023/06/27 11:03:01;;;;;;;;;;;;;;;26.64;37.3125;102117.2;;;;-65
2023/06/27 11:08:02;;;;;;;;;;;;;;;26.86;36.69141;102118.2;;;;-68
2023/06/27 11:13:06;;;;;;;;;;;;;;;26.94;36.97754;102120.8;;;;-67
2023/06/27 11:17:56;;;;;;;;;;;;;;;27.05;36.58984;102126.3;;;;-65
2023/06/27 11:22:57;;;;;;;;;;;;;;;27.3;37.04102;102115.4;;;;-69
2023/06/27 11:24:29;;;;;;;0.2;0.1;;;;;;;;;;;;;-69
2023/06/27 11:28:03;;;;;;;;;;;;;;;27.68;36.55957;102113;;;;-72
2023/06/27 11:32:58;;;;;;;;;;;;;;;28.02;36.75;102116.6;;;;-71
2023/06/27 11:37:59;;;;;;;;;;;;;;;28.26;36.52441;102115.7;;;;-73
2023/06/27 11:43:02;;;;;;;;;;;;;;;28.44;36.30664;102116.5;;;;-71
2023/06/27 11:47:57;;;;;;;;;;;;;;;28.42;36.40918;102118.5;;;;-71
2023/06/27 11:52:59;;;;;;;;;;;;;;;28.63;36.29785;102116;;;;-71
2023/06/27 11:54:32;;;;;;;0.9;0.2;;;;;;;;;;;;;-72
2023/06/27 11:57:58;;;;;;;;;;;;;;;28.65;35.5293;102108.5;;;;-73
2023/06/27 12:02:57;;;;;;;;;;;;;;;28.61;35.67773;102105.1;;;;-72
2023/06/27 12:08:05;;;;;;;;;;;;;;;28.72;35.9668;102114.6;;;;-71
2023/06/27 12:12:59;;;;;;;;;;;;;;;28.71;35.74414;102109.3;;;;-72
2023/06/27 12:18:04;;;;;;;;;;;;;;;28.91;35.92285;102113.4;;;;-73
2023/06/27 12:22:56;;;;;;;;;;;;;;;29.08;35.56152;102105.4;;;;-71
2023/06/27 12:24:37;;;;;;;0.1;0;;;;;;;;;;;;;-72
2023/06/27 12:27:56;;;;;;;;;;;;;;;29.15;34.59668;102111.2;;;;-71
2023/06/27 12:32:59;;;;;;;;;;;;;;;29.21;34.92969;102101.2;;;;-73
2023/06/27 12:37:56;;;;;;;;;;;;;;;29.37;34.23926;102094.2;;;;-72
2023/06/27 12:43:00;;;;;;;;;;;;;;;29.53;34.49707;102096.2;;;;-73
2023/06/27 12:47:58;;;;;;;;;;;;;;;29.59;34.74805;102091.6;;;;-71
2023/06/27 12:52:56;;;;;;;;;;;;;;;29.48;34.5293;102090.1;;;;-73
2023/06/27 12:54:46;;;;;;;0.2;0;;;;;;;;;;;;;-71
2023/06/27 12:57:59;;;;;;;;;;;;;;;29.39;34.26465;102092.9;;;;-72
2023/06/27 13:02:56;;;;;;;;;;;;;;;29.32;33.42773;102094.2;;;;-71
2023/06/27 13:07:56;;;;;;;;;;;;;;;29.12;34.17383;102091.2;;;;-71
2023/06/27 13:12:57;;;;;;;;;;;;;;;29.32;34.31738;102092.5;;;;-71
2023/06/27 13:17:57;;;;;;;;;;;;;;;29.35;34.05078;102088.8;;;;-72
2023/06/27 13:22:56;;;;;;;;;;;;;;;29.29;33.87109;102089.3;;;;-73
2023/06/27 13:24:47;;;;;;;0.1;0;;;;;;;;;;;;;-71
2023/06/27 13:27:58;;;;;;;;;;;;;;;29.25;33.75;102094.1;;;;-71
2023/06/27 13:32:59;;;;;;;;;;;;;;;29.25;33.69238;102090.9;;;;-72
2023/06/27 13:38:01;;;;;;;;;;;;;;;29.19;33.82813;102094.5;;;;-71
2023/06/27 13:42:58;;;;;;;;;;;;;;;29.07;33.33984;102093.1;;;;-73
2023/06/27 13:48:02;;;;;;;;;;;;;;;29.06;33.44336;102089.5;;;;-71
2023/06/27 13:52:58;;;;;;;;;;;;;;;29.01;33.87402;102090.5;;;;-71
2023/06/27 13:54:55;;;;;;;0.1;0;;;;;;;;;;;;;-72
2023/06/27 13:57:56;;;;;;;;;;;;;;;28.93;33.59766;102088.1;;;;-73
2023/06/27 14:02:56;;;;;;;;;;;;;;;28.92;33.51563;102086.7;;;;-71
2023/06/27 14:07:57;;;;;;;;;;;;;;;29.21;33.2207;102077.9;;;;-72
2023/06/27 14:12:57;;;;;;;;;;;;;;;29.25;33.3291;102071.4;;;;-73
2023/06/27 14:17:57;;;;;;;;;;;;;;;29.32;33.13574;102062.5;;;;-71
2023/06/27 14:22:58;;;;;;;;;;;;;;;29.5;32.97266;102063.7;;;;-72
2023/06/27 14:24:57;;;;;;;0.2;0;;;;;;;;;;;;;-74
2023/06/27 14:27:59;;;;;;;;;;;;;;;29.49;32.67969;102058.6;;;;-71
2023/06/27 14:32:56;;;;;;;;;;;;;;;29.55;32.82422;102053.3;;;;-71
2023/06/27 14:37:56;;;;;;;;;;;;;;;29.52;32.25977;102057.3;;;;-72
2023/06/27 14:42:57;;;;;;;;;;;;;;;29.49;32.4209;102054.6;;;;-72
2023/06/27 14:47:57;;;;;;;;;;;;;;;29.29;32.74707;102047.6;;;;-74
2023/06/27 14:52:56;;;;;;;;;;;;;;;29.26;32.93164;102049.7;;;;-73
2023/06/27 14:55:05;;;;;;;0.1;0;;;;;;;;;;;;;-72
2023/06/27 14:58:00;;;;;;;;;;;;;;;29.29;32.85254;102045.9;;;;-71
2023/06/27 15:02:56;;;;;;;;;;;;;;;29.18;32.45801;102049.1;;;;-71
2023/06/27 15:07:57;;;;;;;;;;;;;;;29.05;32.82324;102046.4;;;;-72
2023/06/27 15:12:56;;;;;;;;;;;;;;;28.8;33.03906;102038.7;;;;-71
2023/06/27 15:17:56;;;;;;;;;;;;;;;28.65;33.23926;102031.6;;;;-73
2023/06/27 15:22:59;;;;;;;;;;;;;;;28.43;33.16309;102032.9;;;;-71
2023/06/27 15:25:08;;;;;;;0.2;0;;;;;;;;;;;;;-72
2023/06/27 15:27:57;;;;;;;;;;;;;;;28.23;32.98535;102036.4;;;;-72
2023/06/27 15:33:00;;;;;;;;;;;;;;;28;33.51758;102028.1;;;;-72
2023/06/27 15:37:56;;;;;;;;;;;;;;;27.8;33.5498;102018.7;;;;-71
2023/06/27 15:42:59;;;;;;;;;;;;;;;27.71;33.90332;102013.1;;;;-72
2023/06/27 15:48:05;;;;;;;;;;;;;;;27.57;33.88184;102014.5;;;;-73
2023/06/27 15:52:56;;;;;;;;;;;;;;;27.46;33.78027;102010.6;;;;-72
2023/06/27 15:55:13;;;;;;;0.2;0;;;;;;;;;;;;;-72
2023/06/27 15:57:56;;;;;;;;;;;;;;;27.33;33.96875;102012.2;;;;-71
2023/06/27 16:02:56;;;;;;;;;;;;;;;27.17;34.13184;102013.4;;;;-71
2023/06/27 16:07:56;;;;;;;;;;;;;;;27.03;34.30664;102011.1;;;;-72
2023/06/27 16:12:56;;;;;;;;;;;;;;;26.88;34.43555;102016.8;;;;-72
2023/06/27 16:17:56;;;;;;;;;;;;;;;26.72;34.58594;102019.1;;;;-72
2023/06/27 16:22:56;;;;;;;;;;;;;;;26.59;34.72754;102017;;;;-72
2023/06/27 16:25:18;;;;;;;0.2;0;;;;;;;;;;;;;-71
2023/06/27 16:28:01;;;;;;;;;;;;;;;26.42;34.90039;102002.4;;;;-72
2023/06/27 16:32:56;;;;;;;;;;;;;;;26.29;35.16895;102014;;;;-71
2023/06/27 16:37:56;;;;;;;;;;;;;;;26.18;35.25391;102014.6;;;;-70
2023/06/27 16:42:56;;;;;;;;;;;;;;;25.98;35.46973;102024.4;;;;-72
2023/06/27 16:47:57;;;;;;;;;;;;;;;25.8;35.67676;102022.9;;;;-72
2023/06/27 16:53:00;;;;;;;;;;;;;;;25.64;35.87305;102014.6;;;;-72
2023/06/27 16:55:22;;;;;;;0.2;0;;;;;;;;;;;;;-73
2023/06/27 16:57:56;;;;;;;;;;;;;;;25.54;36.18945;102015.6;;;;-72
2023/06/27 17:02:56;;;;;;;;;;;;;;;25.41;36.12109;102018.3;;;;-71
2023/06/27 17:07:59;;;;;;;;;;;;;;;25.25;36.51367;102007.8;;;;-72
2023/06/27 17:12:58;;;;;;;;;;;;;;;25.1;36.72168;102013.2;;;;-72
2023/06/27 17:18:02;;;;;;;;;;;;;;;24.95;36.90625;102025.8;;;;-72
2023/06/27 17:22:56;;;;;;;;;;;;;;;24.84;37.05859;102027;;;;-71
2023/06/27 17:25:27;;;;;;;0.2;0;;;;;;;;;;;;;-72
2023/06/27 17:28:08;;;;;;;;;;;;;;;24.72;37.16504;102029.8;;;;-72
2023/06/27 17:32:59;;;;;;;;;;;;;;;24.6;37.46777;102030.5;;;;-71
2023/06/27 17:37:56;;;;;;;;;;;;;;;24.52;37.40332;102036.9;;;;-72
2023/06/27 17:43:01;;;;;;;;;;;;;;;24.47;36.7627;102037.3;;;;-72
2023/06/27 17:47:56;;;;;;;;;;;;;;;24.38;36.72168;102037;;;;-72
2023/06/27 17:52:58;;;;;;;;;;;;;;;24.25;36.74512;102035;;;;-72
2023/06/27 17:55:31;;;;;;;0.2;0;;;;;;;;;;;;;-71
2023/06/27 17:57:56;;;;;;;;;;;;;;;24.14;36.81641;102026;;;;-73
2023/06/27 18:02:59;;;;;;;;;;;;;;;23.99;36.75781;102028.1;;;;-73
2023/06/27 18:08:00;;;;;;;;;;;;;;;23.88;36.8877;102030.5;;;;-72
2023/06/27 18:12:56;;;;;;;;;;;;;;;23.75;36.59961;102036.8;;;;-72
2023/06/27 18:17:58;;;;;;;;;;;;;;;23.62;37.26953;102041.5;;;;-72
2023/06/27 18:22:56;;;;;;;;;;;;;;;23.48;36.96973;102045.3;;;;-71
2023/06/27 18:25:35;;;;;;;0.3;0.1;;;;;;;;;;;;;-71
2023/06/27 18:27:56;;;;;;;;;;;;;;;23.34;37.27051;102039.6;;;;-72
2023/06/27 18:32:57;;;;;;;;;;;;;;;23.23;37.31836;102037.4;;;;-71
2023/06/27 18:37:57;;;;;;;;;;;;;;;23.11;37.87402;102031.5;;;;-65
2023/06/27 18:42:57;;;;;;;;;;;;;;;22.98;38.03516;102034.7;;;;-68
2023/06/27 18:47:56;;;;;;;;;;;;;;;22.86;38.49805;102033.3;;;;-66
2023/06/27 18:52:57;;;;;;;;;;;;;;;22.72;38.56641;102032.1;;;;-67
2023/06/27 18:55:39;;;;;;;0.2;0;;;;;;;;;;;;;-65
2023/06/27 18:57:58;;;;;;;;;;;;;;;22.59;38.88867;102028.5;;;;-66
2023/06/27 19:02:56;;;;;;;;;;;;;;;22.49;39.00684;102023.7;;;;-65
2023/06/27 19:07:56;;;;;;;;;;;;;;;22.38;39.23926;102022.6;;;;-66
2023/06/27 19:12:58;;;;;;;;;;;;;;;22.26;39.46973;102018.2;;;;-66
2023/06/27 19:17:59;;;;;;;;;;;;;;;22.13;40.2168;102021.9;;;;-66
2023/06/27 19:22:56;;;;;;;;;;;;;;;21.99;40.04395;102023.6;;;;-66
2023/06/27 19:25:43;;;;;;;0.2;0;;;;;;;;;;;;;-65
2023/06/27 19:27:56;;;;;;;;;;;;;;;21.89;40.3457;102025.8;;;;-65
2023/06/27 19:32:56;;;;;;;;;;;;;;;21.79;40.69141;102023;;;;-68
2023/06/27 19:37:56;;;;;;;;;;;;;;;21.66;41.0127;102020.3;;;;-65
2023/06/27 19:42:56;;;;;;;;;;;;;;;21.54;41.20898;102024.2;;;;-65
2023/06/27 19:47:56;;;;;;;;;;;;;;;21.44;41.50879;102031.4;;;;-66
2023/06/27 19:52:56;;;;;;;;;;;;;;;21.28;41.73535;102030.3;;;;-66
2023/06/27 19:55:47;;;;;;;0.2;0;;;;;;;;;;;;;-68
2023/06/27 19:57:57;;;;;;;;;;;;;;;21.19;42.28809;102031.6;;;;-67
2023/06/27 20:02:56;;;;;;;;;;;;;;;21.08;42.41602;102029.6;;;;-66
2023/06/27 20:07:58;;;;;;;;;;;;;;;20.98;42.8418;102034.6;;;;-67
2023/06/27 20:12:57;;;;;;;;;;;;;;;20.9;42.94824;102039.6;;;;-67
2023/06/27 20:17:56;;;;;;;;;;;;;;;20.8;43.00781;102037.8;;;;-67
2023/06/27 20:22:57;;;;;;;;;;;;;;;20.72;43.49219;102029;;;;-67
2023/06/27 20:25:50;;;;;;;0.2;0;;;;;;;;;;;;;-67
2023/06/27 20:27:56;;;;;;;;;;;;;;;20.62;43.6543;102029.4;;;;-68
2023/06/27 20:32:56;;;;;;;;;;;;;;;20.51;43.82617;102034.4;;;;-69
2023/06/27 20:37:56;;;;;;;;;;;;;;;20.42;44.67578;102036;;;;-66
2023/06/27 20:42:56;;;;;;;;;;;;;;;20.34;44.67969;102036;;;;-67
2023/06/27 20:47:56;;;;;;;;;;;;;;;20.24;45.04688;102040.5;;;;-67
2023/06/27 20:52:56;;;;;;;;;;;;;;;20.16;45.39258;102038.5;;;;-67
2023/06/27 20:55:54;;;;;;;0.5;0.3;;;;;;;;;;;;;-67
2023/06/27 20:57:56;;;;;;;;;;;;;;;20.06;46.00977;102031.4;;;;-67
2023/06/27 21:02:56;;;;;;;;;;;;;;;19.98;45.78418;102034.8;;;;-66
2023/06/27 21:07:56;;;;;;;;;;;;;;;19.89;46.55273;102034;;;;-67
2023/06/27 21:12:56;;;;;;;;;;;;;;;19.82;46.69336;102035.1;;;;-67
2023/06/27 21:17:56;;;;;;;;;;;;;;;19.71;46.85254;102026.6;;;;-67
2023/06/27 21:22:56;;;;;;;;;;;;;;;19.65;47.64453;102023.8;;;;-67
2023/06/27 21:25:57;;;;;;;0.2;0;;;;;;;;;;;;;-66
2023/06/27 21:27:56;;;;;;;;;;;;;;;19.54;47.13086;102025.7;;;;-66
2023/06/27 21:32:56;;;;;;;;;;;;;;;19.46;47.30469;102021.3;;;;-67
2023/06/27 21:37:56;;;;;;;;;;;;;;;19.36;47.45508;102017.3;;;;-67
2023/06/27 21:42:59;;;;;;;;;;;;;;;19.3;47.74414;102017.7;;;;-67
2023/06/27 21:47:56;;;;;;;;;;;;;;;19.23;48.14648;102011.4;;;;-67
2023/06/27 21:52:56;;;;;;;;;;;;;;;19.17;48.41406;102006.6;;;;-68
2023/06/27 21:56:00;;;;;;;0.2;0;;;;;;;;;;;;;-66
2023/06/27 21:57:56;;;;;;;;;;;;;;;19.11;48.69141;102001.9;;;;-67
2023/06/27 22:02:56;;;;;;;;;;;;;;;19.07;48.74512;101996.6;;;;-67
2023/06/27 22:07:57;;;;;;;;;;;;;;;19.02;49.04785;101990.2;;;;-67
2023/06/27 22:12:57;;;;;;;;;;;;;;;18.95;49.42676;101985.1;;;;-70
2023/06/27 22:17:56;;;;;;;;;;;;;;;18.89;49.75;101994.1;;;;-66
2023/06/27 22:22:56;;;;;;;;;;;;;;;18.83;50.12891;101993.7;;;;-67
2023/06/27 22:26:03;;;;;;;0.2;0.1;;;;;;;;;;;;;-66
2023/06/27 22:27:56;;;;;;;;;;;;;;;18.8;50.03516;101992.5;;;;-67
2023/06/27 22:32:56;;;;;;;;;;;;;;;18.75;50.48535;101991.8;;;;-66
2023/06/27 22:37:56;;;;;;;;;;;;;;;18.68;50.61328;101988.9;;;;-67
2023/06/27 22:42:56;;;;;;;;;;;;;;;18.62;50.81152;101983.3;;;;-66
2023/06/27 22:47:56;;;;;;;;;;;;;;;18.59;51.10352;101977.5;;;;-67
2023/06/27 22:52:57;;;;;;;;;;;;;;;18.55;50.74609;101973.8;;;;-66
2023/06/27 22:56:06;;;;;;;0.2;0.1;;;;;;;;;;;;;-66
2023/06/27 22:57:56;;;;;;;;;;;;;;;18.51;51.04883;101967.6;;;;-66
2023/06/27 23:02:56;;;;;;;;;;;;;;;18.47;51.04492;101964.4;;;;-66
2023/06/27 23:07:57;;;;;;;;;;;;;;;18.44;51.24512;101967.3;;;;-66
2023/06/27 23:12:56;;;;;;;;;;;;;;;18.4;51.09375;101961.3;;;;-66
2023/06/27 23:17:59;;;;;;;;;;;;;;;18.38;51.22656;101955.8;;;;-65
2023/06/27 23:22:56;;;;;;;;;;;;;;;18.36;51.05273;101957.1;;;;-67
2023/06/27 23:26:12;;;;;;;0.2;0;;;;;;;;;;;;;-67
2023/06/27 23:28:00;;;;;;;;;;;;;;;18.33;51.33398;101955.2;;;;-68
2023/06/27 23:32:58;;;;;;;;;;;;;;;18.31;51.62695;101953.1;;;;-66
2023/06/27 23:37:57;;;;;;;;;;;;;;;18.27;51.67871;101951.1;;;;-66
2023/06/27 23:42:57;;;;;;;;;;;;;;;18.24;51.53906;101957.7;;;;-68
2023/06/27 23:47:56;;;;;;;;;;;;;;;18.25;51.87109;101951.6;;;;-67
2023/06/27 23:52:56;;;;;;;;;;;;;;;18.23;51.75391;101953.8;;;;-66
2023/06/27 23:56:12;;;;;;;0.2;0;;;;;;;;;;;;;-67
2023/06/27 23:57:56;;;;;;;;;;;;;;;18.19;51.64746;101950;;;;-67
